Time;durP1;ratioP1;P1;durP2;ratioP2;P2;SDS_P1;SDS_P2;PMS_P1;PMS_P2;Temp;Humidity;BMP_temperature;BMP_pressure;BME280_temperature;BME280_humidity;BME280_pressure;Samples;Min_cycle;Max_cycle;Signal;HPM_P1;HPM_P2
2021/05/12 00:00:12;;;;;;;2.43;2.20;;;;;;;16.46;50.16;94543.19;5115071;28;20452;-86
2021/05/12 00:02:39;;;;;;;7.43;2.47;;;;;;;16.53;49.59;94544.16;5115271;28;20441;-86
2021/05/12 00:05:07;;;;;;;4.80;2.37;;;;;;;16.52;49.92;94545.97;5116109;28;20784;-85
2021/05/12 00:07:34;;;;;;;2.97;2.77;;;;;;;16.60;49.60;94543.25;5115335;28;20443;-85
2021/05/12 00:10:01;;;;;;;2.27;2.13;;;;;;;16.43;49.86;94539.06;5116258;28;21147;-86
2021/05/12 00:12:27;;;;;;;4.63;2.50;;;;;;;16.37;51.23;94534.47;5116887;28;20498;-85
2021/05/12 00:14:54;;;;;;;3.33;2.57;;;;;;;16.36;51.15;94538.09;5116311;28;20442;-86
2021/05/12 00:17:21;;;;;;;2.63;2.40;;;;;;;16.35;51.89;94537.28;5116281;28;20435;-86
2021/05/12 00:19:54;;;;;;;6.20;2.77;;;;;;;16.41;51.38;94530.47;5116440;28;20436;-86
2021/05/12 00:22:32;;;;;;;3.50;2.77;;;;;;;16.45;51.55;94526.47;5116530;28;20423;-85
2021/05/12 00:24:58;;;;;;;2.78;2.50;;;;;;;16.54;51.18;94521.97;5115386;28;20443;-83
2021/05/12 00:27:28;;;;;;;3.20;2.40;;;;;;;16.57;51.09;94526.91;5115846;28;20660;-87
2021/05/12 00:29:55;;;;;;;3.47;2.40;;;;;;;16.47;51.09;94521.81;5114785;28;20450;-86
2021/05/12 00:32:21;;;;;;;5.13;3.20;;;;;;;16.43;51.53;94516.03;5114500;28;20452;-85
2021/05/12 00:34:48;;;;;;;2.30;2.20;;;;;;;16.36;51.40;94515.09;5114385;28;20457;-86
2021/05/12 00:37:14;;;;;;;6.80;2.50;;;;;;;16.22;51.74;94504.44;5114297;28;20452;-86
2021/05/12 00:39:40;;;;;;;4.30;2.77;;;;;;;16.13;52.87;94508.09;5114483;28;20494;-87
2021/05/12 00:42:07;;;;;;;3.17;2.87;;;;;;;16.08;52.77;94506.81;5114333;28;20493;-86
2021/05/12 00:44:34;;;;;;;3.40;2.47;;;;;;;15.98;53.35;94500.09;5114099;28;20557;-84
2021/05/12 00:47:05;;;;;;;6.43;2.53;;;;;;;15.80;54.02;94495.03;5079725;28;20481;-85
2021/05/12 00:49:32;;;;;;;3.20;3.00;;;;;;;15.69;54.66;94501.53;5114518;28;20442;-86
2021/05/12 00:51:58;;;;;;;3.20;2.53;;;;;;;15.73;54.94;94499.34;5115787;28;20510;-85
2021/05/12 00:54:25;;;;;;;3.23;2.83;;;;;;;15.78;54.63;94475.84;5116021;28;20483;-86
2021/05/12 00:56:51;;;;;;;3.93;2.83;;;;;;;15.84;54.85;94490.22;5079935;28;20435;-86
2021/05/12 00:59:19;;;;;;;3.20;3.00;;;;;;;15.82;53.86;94471.03;5114752;28;20448;-86
2021/05/12 01:01:46;;;;;;;2.80;2.40;;;;;;;15.85;54.66;94484.75;5114426;28;20449;-87
2021/05/12 01:04:13;;;;;;;3.60;3.30;;;;;;;15.85;54.50;94476.81;5113947;28;20911;-87
2021/05/12 01:06:40;;;;;;;2.73;2.57;;;;;;;15.84;55.07;94472.50;5114020;28;20480;-87
2021/05/12 01:09:08;;;;;;;4.93;2.73;;;;;;;15.82;54.65;94471.84;5113719;28;20454;-84
2021/05/12 01:11:35;;;;;;;4.17;2.97;;;;;;;15.91;54.85;94476.16;5077403;28;20480;-88
2021/05/12 01:14:02;;;;;;;2.70;2.50;;;;;;;15.98;54.69;94477.09;5113958;28;20440;-86
2021/05/12 01:16:28;;;;;;;4.00;3.07;;;;;;;16.01;54.02;94462.69;5114677;28;20795;-87
2021/05/12 01:18:55;;;;;;;6.73;3.10;;;;;;;16.02;54.16;94466.97;5114393;28;20452;-87
2021/05/12 01:21:22;;;;;;;3.00;2.50;;;;;;;16.06;53.40;94465.63;5113876;28;20443;-88
2021/05/12 01:23:49;;;;;;;6.50;2.70;;;;;;;16.07;53.33;94457.50;5115300;28;20925;-88
2021/05/12 01:26:18;;;;;;;3.40;2.93;;;;;;;16.03;54.29;94464.16;5113736;28;20484;-85
2021/05/12 01:28:47;;;;;;;5.50;3.20;;;;;;;16.02;54.43;94462.50;5115362;28;20443;-88
2021/05/12 01:31:16;;;;;;;3.27;2.53;;;;;;;16.04;54.22;94457.88;5115453;28;20443;-85
2021/05/12 01:33:43;;;;;;;3.00;2.30;;;;;;;16.08;53.80;94453.88;5114132;28;20440;-87
2021/05/12 01:36:11;;;;;;;3.70;2.50;;;;;;;16.11;54.07;94444.75;5114207;28;20444;-86
2021/05/12 01:38:41;;;;;;;3.30;3.00;;;;;;;16.10;53.58;94464.28;5113226;28;20451;-88
2021/05/12 01:41:07;;;;;;;4.13;2.67;;;;;;;16.05;53.86;94461.34;5114668;28;20446;-88
2021/05/12 01:43:35;;;;;;;4.03;2.30;;;;;;;16.03;53.72;94463.34;5115204;28;20455;-86
2021/05/12 01:46:02;;;;;;;4.37;2.80;;;;;;;16.01;54.48;94457.41;5114775;28;20491;-86
2021/05/12 01:48:29;;;;;;;5.47;3.40;;;;;;;16.01;54.72;94450.28;5114753;28;20503;-88
2021/05/12 01:50:56;;;;;;;3.73;3.43;;;;;;;15.95;55.26;94445.69;5114838;28;20443;-86
2021/05/12 01:53:23;;;;;;;5.07;2.70;;;;;;;15.88;55.22;94444.72;5115261;28;20477;-87
2021/05/12 01:55:51;;;;;;;5.13;3.40;;;;;;;15.89;54.58;94443.72;5114626;28;20467;-86
2021/05/12 01:58:19;;;;;;;4.37;2.63;;;;;;;15.89;55.03;94440.25;5115080;28;20466;-86
2021/05/12 02:00:48;;;;;;;2.63;2.43;;;;;;;15.92;54.96;94438.09;5116234;28;20499;-85
2021/05/12 02:03:14;;;;;;;3.20;3.00;;;;;;;15.94;54.80;94432.63;5118545;28;20447;-88
2021/05/12 02:05:42;;;;;;;4.17;2.33;;;;;;;15.96;54.16;94435.91;5119272;28;20491;-86
2021/05/12 02:08:10;;;;;;;3.03;2.80;;;;;;;15.76;55.05;94430.22;5117533;28;20438;-85
2021/05/12 02:10:38;;;;;;;3.93;3.50;;;;;;;15.57;55.92;94425.31;5117512;28;20443;-87
2021/05/12 02:13:06;;;;;;;3.43;3.03;;;;;;;15.54;56.44;94433.59;5118954;28;20446;-88
2021/05/12 02:15:32;;;;;;;5.83;2.70;;;;;;;15.49;56.73;94431.47;5118776;28;20429;-86
2021/05/12 02:17:59;;;;;;;3.50;3.17;;;;;;;15.48;57.07;94435.09;5118256;28;20444;-86
2021/05/12 02:20:28;;;;;;;3.73;3.40;;;;;;;15.53;57.14;94435.41;5117018;28;20447;-87
2021/05/12 02:22:55;;;;;;;3.20;3.00;;;;;;;15.41;57.85;94437.63;5117049;28;20437;-86
2021/05/12 02:25:21;;;;;;;3.57;3.10;;;;;;;15.44;59.35;94437.28;5116968;28;20442;-86
2021/05/12 02:27:48;;;;;;;3.60;3.30;;;;;;;15.43;59.06;94435.63;5116748;28;20829;-85
2021/05/12 02:30:16;;;;;;;4.37;3.70;;;;;;;15.33;58.72;94432.38;5116768;28;20498;-84
2021/05/12 02:32:43;;;;;;;4.27;3.10;;;;;;;15.25;59.04;94432.38;5117699;28;20440;-86
2021/05/12 02:35:10;;;;;;;4.53;3.72;;;;;;;15.29;59.30;94427.56;5117180;28;20504;-88
2021/05/12 02:37:37;;;;;;;4.70;3.77;;;;;;;15.29;58.66;94435.50;5118666;28;20289;-87
2021/05/12 02:40:05;;;;;;;4.30;4.00;;;;;;;15.11;59.03;94433.06;5118461;28;20454;-85
2021/05/12 02:42:31;;;;;;;4.50;3.27;;;;;;;15.04;59.37;94429.47;5083188;28;20961;-86
2021/05/12 02:44:57;;;;;;;4.20;3.20;;;;;;;14.82;59.93;94425.69;5121202;28;20438;-87
2021/05/12 02:47:25;;;;;;;5.80;3.70;;;;;;;14.83;61.04;94430.81;5119294;28;20480;-87
2021/05/12 02:49:51;;;;;;;3.40;3.20;;;;;;;14.88;60.92;94438.22;5066044;28;20443;-87
2021/05/12 02:52:17;;;;;;;7.50;3.50;;;;;;;14.91;60.72;94429.97;5117782;28;20462;-87
2021/05/12 02:54:44;;;;;;;5.30;3.37;;;;;;;14.85;59.89;94423.53;5118485;28;20480;-87
2021/05/12 02:57:11;;;;;;;3.43;3.17;;;;;;;14.87;60.35;94418.91;5118403;28;20900;-87
2021/05/12 02:59:38;;;;;;;4.93;3.83;;;;;;;14.91;60.38;94418.56;5117837;28;20437;-87
2021/05/12 03:02:04;;;;;;;3.53;3.27;;;;;;;14.90;61.31;94422.22;5118991;28;20592;-88
2021/05/12 03:04:32;;;;;;;3.97;3.47;;;;;;;14.82;61.52;94418.59;5064586;28;20443;-85
2021/05/12 03:06:58;;;;;;;5.70;3.97;;;;;;;14.76;59.84;94421.91;5117172;28;20543;-87
2021/05/12 03:09:25;;;;;;;5.47;3.60;;;;;;;14.74;60.28;94417.75;5116922;28;20452;-84
2021/05/12 03:11:52;;;;;;;6.17;3.70;;;;;;;14.75;60.89;94422.91;5117739;28;20445;-87
2021/05/12 03:14:19;;;;;;;4.17;3.87;;;;;;;14.71;60.82;94424.22;5118237;28;20431;-86
2021/05/12 03:16:49;;;;;;;3.93;3.53;;;;;;;14.63;60.47;94426.03;5082651;28;20488;-87
2021/05/12 03:19:16;;;;;;;4.23;3.93;;;;;;;14.25;59.24;94429.13;5117445;28;20823;-87
2021/05/12 03:21:43;;;;;;;3.60;3.30;;;;;;;14.16;60.21;94424.81;5117706;28;20458;-87
2021/05/12 03:24:09;;;;;;;5.00;3.60;;;;;;;14.07;60.64;94436.38;5116827;28;20471;-86
2021/05/12 03:26:36;;;;;;;5.20;4.00;;;;;;;14.11;60.58;94428.94;5118242;28;20489;-88
2021/05/12 03:29:04;;;;;;;5.40;4.50;;;;;;;14.18;61.32;94433.44;5116444;28;20939;-88
2021/05/12 03:31:31;;;;;;;4.43;4.03;;;;;;;14.21;60.24;94427.00;5117398;28;20471;-87
2021/05/12 03:33:57;;;;;;;5.20;3.93;;;;;;;14.09;60.02;94415.91;5117453;28;20442;-87
2021/05/12 03:36:24;;;;;;;4.63;4.13;;;;;;;14.00;60.31;94416.91;5116107;28;20446;-86
2021/05/12 03:38:52;;;;;;;4.53;3.67;;;;;;;14.04;61.53;94422.69;5115582;28;20451;-86
2021/05/12 03:41:19;;;;;;;5.80;4.20;;;;;;;14.13;62.52;94421.69;5080438;28;20444;-87
2021/05/12 03:43:45;;;;;;;7.73;4.70;;;;;;;14.28;62.37;94417.44;5115730;28;20445;-87
2021/05/12 03:46:12;;;;;;;4.63;4.10;;;;;;;14.49;61.40;94409.06;5080304;28;20482;-87
2021/05/12 03:48:39;;;;;;;4.33;3.70;;;;;;;14.95;66.58;94407.50;5116213;28;20447;-89
2021/05/12 03:51:05;;;;;;;6.27;4.20;;;;;;;15.82;59.30;94407.53;5117345;28;20442;-86
2021/05/12 03:53:31;;;;;;;7.40;4.17;;;;;;;16.84;56.72;94398.38;5118205;28;20446;-83
2021/05/12 03:55:59;;;;;;;10.20;3.10;;;;;;;17.49;53.57;94403.81;5116681;28;20476;-86
2021/05/12 03:58:25;;;;;;;7.87;4.17;;;;;;;17.88;52.08;94398.19;5115695;28;20439;-87
2021/05/12 04:00:52;;;;;;;4.53;3.53;;;;;;;18.21;50.98;94403.03;5115772;28;20468;-85
2021/05/12 04:03:18;;;;;;;15.97;3.40;;;;;;;18.39;50.46;94400.78;5080104;28;20439;-85
2021/05/12 04:05:44;;;;;;;3.07;2.87;;;;;;;18.62;49.84;94405.94;5115614;28;20483;-83
2021/05/12 04:08:11;;;;;;;3.00;2.80;;;;;;;18.87;49.21;94409.00;5115025;28;20451;-86
2021/05/12 04:10:37;;;;;;;5.47;2.97;;;;;;;19.00;47.73;94402.97;5114755;28;20452;-87
2021/05/12 04:13:04;;;;;;;3.80;3.43;;;;;;;19.16;47.50;94400.84;5115639;28;20449;-85
2021/05/12 04:15:31;;;;;;;7.13;4.33;;;;;;;18.52;48.45;94395.59;5116015;28;20490;-85
2021/05/12 04:17:57;;;;;;;5.77;4.63;;;;;;;18.03;50.18;94381.41;5116864;28;20458;-87
2021/05/12 04:20:24;;;;;;;7.20;4.07;;;;;;;17.94;50.22;94394.00;5115355;28;20477;-87
2021/05/12 04:22:50;;;;;;;4.10;3.77;;;;;;;17.52;51.59;94386.69;5116220;28;20568;-86
2021/05/12 04:25:20;;;;;;;4.50;4.10;;;;;;;17.49;52.14;94392.38;5077687;28;20442;-85
2021/05/12 04:27:48;;;;;;;3.37;3.10;;;;;;;16.81;53.43;94390.81;5115383;28;20770;-86
2021/05/12 04:30:18;;;;;;;7.40;4.27;;;;;;;16.37;55.06;94389.63;5115326;28;20445;-85
2021/05/12 04:32:45;;;;;;;6.47;4.00;;;;;;;16.67;54.40;94392.41;5115434;28;20445;-87
2021/05/12 04:35:12;;;;;;;6.23;3.63;;;;;;;16.98;53.84;94389.63;5115108;28;20433;-87
2021/05/12 04:37:39;;;;;;;5.33;3.33;;;;;;;17.41;52.27;94380.03;5114682;28;20446;-86
2021/05/12 04:40:06;;;;;;;9.83;3.83;;;;;;;17.84;51.19;94375.69;5115761;28;20772;-85
2021/05/12 04:42:33;;;;;;;8.57;3.90;;;;;;;18.25;49.55;94377.78;5114923;28;20820;-88
2021/05/12 04:44:59;;;;;;;8.53;4.10;;;;;;;18.33;48.55;94374.97;5115497;28;20791;-86
2021/05/12 04:47:27;;;;;;;11.13;4.03;;;;;;;18.55;48.32;94379.28;5115396;28;20488;-87
2021/05/12 04:49:53;;;;;;;14.20;4.00;;;;;;;18.84;47.78;94373.00;5115874;28;20436;-86
2021/05/12 04:52:19;;;;;;;4.07;3.20;;;;;;;18.99;46.85;94378.22;5116096;28;20444;-83
2021/05/12 04:54:46;;;;;;;3.50;3.20;;;;;;;19.07;46.62;94372.72;5115070;28;20480;-85
2021/05/12 04:57:12;;;;;;;5.47;3.47;;;;;;;19.37;46.61;94370.69;5115796;28;20834;-86
2021/05/12 04:59:38;;;;;;;10.90;4.07;;;;;;;19.29;45.72;94370.00;5115429;28;20449;-86
2021/05/12 05:02:06;;;;;;;7.77;3.80;;;;;;;19.67;45.96;94368.63;5114357;28;20457;-82
2021/05/12 05:04:35;;;;;;;6.97;3.37;;;;;;;20.03;44.58;94367.50;5094163;28;20533;-82
2021/05/12 05:07:02;;;;;;;4.70;3.43;;;;;;;20.32;44.18;94371.69;5094963;28;20470;-83
2021/05/12 05:09:29;;;;;;;5.53;3.37;;;;;;;20.62;42.75;94372.16;5094084;28;20944;-85
2021/05/12 05:11:55;;;;;;;4.93;3.33;;;;;;;20.65;43.09;94361.91;5094967;28;20479;-82
2021/05/12 05:14:22;;;;;;;5.00;3.40;;;;;;;20.76;43.11;94355.13;5093621;28;20931;-83
2021/05/12 05:16:48;;;;;;;3.93;3.53;;;;;;;20.92;43.68;94351.22;5075948;28;20444;-83
2021/05/12 05:19:15;;;;;;;5.10;3.60;;;;;;;20.84;42.86;94336.25;5094447;28;21087;-84
2021/05/12 05:21:42;;;;;;;3.10;2.90;;;;;;;20.74;42.74;94333.16;5094717;28;20445;-84
2021/05/12 05:24:10;;;;;;;3.80;3.50;;;;;;;20.64;43.05;94327.44;5094641;28;20436;-83
2021/05/12 05:26:36;;;;;;;4.70;3.33;;;;;;;20.65;43.17;94331.75;5094517;28;20484;-84
2021/05/12 05:29:03;;;;;;;4.37;3.50;;;;;;;20.62;42.89;94335.66;5094091;28;20454;-83
2021/05/12 05:31:30;;;;;;;4.53;3.67;;;;;;;20.76;42.52;94341.78;5094224;28;20459;-86
2021/05/12 05:33:56;;;;;;;4.63;3.50;;;;;;;20.94;42.18;94346.50;5095284;28;20458;-84
2021/05/12 05:36:22;;;;;;;3.40;3.17;;;;;;;21.18;42.26;94339.69;5058879;28;20432;-84
2021/05/12 05:38:49;;;;;;;6.40;3.73;;;;;;;21.44;40.99;94339.66;5094889;28;20443;-83
2021/05/12 05:41:17;;;;;;;4.80;3.30;;;;;;;21.73;41.33;94337.50;5095011;28;20447;-84
2021/05/12 05:43:43;;;;;;;3.60;3.30;;;;;;;22.00;40.25;94328.34;5094598;28;20440;-83
2021/05/12 05:46:09;;;;;;;7.43;3.80;;;;;;;22.30;40.50;94322.44;5093219;28;20484;-84
2021/05/12 05:48:36;;;;;;;4.70;3.10;;;;;;;22.38;39.94;94322.16;5093502;28;20440;-82
2021/05/12 05:51:02;;;;;;;4.90;3.13;;;;;;;22.21;40.17;94313.84;5093417;28;20955;-83
2021/05/12 05:53:28;;;;;;;3.30;3.07;;;;;;;22.28;40.43;94316.50;5093982;28;20460;-85
2021/05/12 05:55:56;;;;;;;9.67;2.90;;;;;;;22.39;39.28;94305.09;5094500;28;21011;-83
2021/05/12 05:58:23;;;;;;;2.80;2.60;;;;;;;22.26;39.82;94305.97;5094102;28;20501;-83
2021/05/12 06:00:49;;;;;;;3.20;2.90;;;;;;;22.24;39.91;94306.19;5093758;28;20916;-83
2021/05/12 06:03:15;;;;;;;5.70;2.60;;;;;;;22.18;39.70;94303.59;5093141;28;20449;-84
2021/05/12 06:05:46;;;;;;;3.80;3.17;;;;;;;22.39;40.10;94299.75;5093487;28;20880;-84
2021/05/12 06:08:13;;;;;;;4.17;2.87;;;;;;;22.38;38.99;94287.41;5093676;28;20452;-82
2021/05/12 06:10:39;;;;;;;3.57;3.23;;;;;;;22.23;39.63;94301.06;5092990;28;20453;-82
2021/05/12 06:13:06;;;;;;;3.50;2.33;;;;;;;22.22;40.13;94305.59;5093517;28;20440;-82
2021/05/12 06:15:39;;;;;;;2.93;2.13;;;;;;;22.09;39.73;94300.34;5093370;28;20939;-81
2021/05/12 06:18:06;;;;;;;6.40;2.43;;;;;;;22.07;40.37;94294.41;5095594;28;20525;-83
2021/05/12 06:20:32;;;;;;;7.00;2.80;;;;;;;22.32;40.70;94298.97;5106138;28;20453;-82
2021/05/12 06:23:02;;;;;;;3.10;2.80;;;;;;;22.36;40.12;94284.13;5092838;28;20445;-82
2021/05/12 06:25:29;;;;;;;5.87;2.97;;;;;;;22.41;40.13;94286.97;5093271;28;20444;-84
2021/05/12 06:27:55;;;;;;;2.20;2.00;;;;;;;22.02;40.64;94280.84;5093153;28;20450;-82
2021/05/12 06:30:23;;;;;;;3.07;2.77;;;;;;;22.25;39.90;94270.41;5093430;28;20448;-83
2021/05/12 06:32:51;;;;;;;3.50;3.30;;;;;;;22.34;40.62;94278.19;5051720;28;20426;-82
2021/05/12 06:35:18;;;;;;;3.83;2.63;;;;;;;22.54;39.99;94276.97;5094502;28;20770;-82
2021/05/12 06:37:45;;;;;;;3.43;2.67;;;;;;;22.50;38.91;94269.63;5092801;28;21226;-83
2021/05/12 06:40:12;;;;;;;4.10;2.53;;;;;;;22.36;40.13;94262.75;5092791;28;20814;-81
2021/05/12 06:42:38;;;;;;;2.60;2.40;;;;;;;21.98;39.90;94266.28;5092738;28;20471;-82
2021/05/12 06:45:06;;;;;;;4.03;3.23;;;;;;;21.46;40.31;94268.19;5097708;28;20510;-82
2021/05/12 06:47:34;;;;;;;3.50;2.23;;;;;;;21.58;41.00;94263.00;5110783;28;20483;-81
2021/05/12 06:50:00;;;;;;;5.57;2.90;;;;;;;21.77;40.40;94269.28;5117410;28;20456;-82
2021/05/12 06:52:26;;;;;;;4.57;3.00;;;;;;;21.67;40.72;94264.38;5108509;28;20863;-81
2021/05/12 06:54:53;;;;;;;7.93;2.77;;;;;;;22.08;40.43;94257.81;5115475;28;20478;-83
2021/05/12 06:57:19;;;;;;;3.67;2.90;;;;;;;22.60;40.42;94267.28;5117388;28;20459;-81
2021/05/12 06:59:45;;;;;;;6.23;2.40;;;;;;;22.69;39.51;94263.28;5117355;28;20509;-81
2021/05/12 07:02:12;;;;;;;5.83;2.70;;;;;;;23.09;39.59;94257.56;5115996;28;20445;-82
2021/05/12 07:04:39;;;;;;;4.47;2.80;;;;;;;23.63;38.25;94258.63;5117404;28;20443;-81
2021/05/12 07:07:05;;;;;;;4.93;2.70;;;;;;;23.81;37.02;94245.19;5103218;28;20512;-82
2021/05/12 07:09:31;;;;;;;3.23;2.47;;;;;;;23.98;37.81;94240.81;5108090;28;20839;-81
2021/05/12 07:11:58;;;;;;;4.13;2.80;;;;;;;23.77;37.15;94246.69;5117186;28;20470;-82
2021/05/12 07:14:24;;;;;;;7.87;2.57;;;;;;;23.98;37.23;94246.16;5116744;28;20953;-82
2021/05/12 07:16:52;;;;;;;6.07;2.90;;;;;;;23.92;37.23;94241.72;5101243;28;20453;-81
2021/05/12 07:19:19;;;;;;;3.23;2.83;;;;;;;23.87;37.79;94246.97;5117169;28;20458;-82
2021/05/12 07:21:46;;;;;;;3.73;2.80;;;;;;;24.12;36.74;94246.00;5060423;28;20443;-81
2021/05/12 07:24:13;;;;;;;7.43;2.97;;;;;;;24.43;37.30;94247.59;5096834;28;20454;-81
2021/05/12 07:26:39;;;;;;;13.00;2.80;;;;;;;24.58;37.42;94242.63;5094702;28;20480;-82
2021/05/12 07:29:05;;;;;;;3.63;2.53;;;;;;;24.89;35.72;94236.91;5096964;28;20531;-83
2021/05/12 07:31:32;;;;;;;8.07;2.90;;;;;;;25.12;34.76;94240.63;5097272;28;20449;-83
2021/05/12 07:33:59;;;;;;;3.90;3.23;;;;;;;25.32;34.99;94236.53;5060946;28;20447;-82
2021/05/12 07:36:25;;;;;;;3.80;3.20;;;;;;;25.39;34.76;94225.63;5096169;28;20450;-81
2021/05/12 07:38:52;;;;;;;6.03;4.30;;;;;;;25.08;34.85;94218.81;5096441;28;20504;-83
2021/05/12 07:41:19;;;;;;;4.00;2.53;;;;;;;24.90;35.25;94210.88;5097027;28;20450;-80
2021/05/12 07:43:45;;;;;;;4.33;2.67;;;;;;;25.17;35.07;94217.41;5096602;28;20867;-83
2021/05/12 07:46:11;;;;;;;2.40;2.30;;;;;;;25.29;34.55;94223.56;5110790;28;20477;-82
2021/05/12 07:48:38;;;;;;;5.10;2.83;;;;;;;25.23;35.95;94202.22;5115736;28;20453;-82
2021/05/12 07:51:07;;;;;;;5.10;2.60;;;;;;;25.28;35.17;94211.19;5115856;28;20455;-82
2021/05/12 07:53:33;;;;;;;4.80;2.47;;;;;;;25.31;34.94;94207.22;5116258;28;20458;-82
2021/05/12 07:56:00;;;;;;;5.03;2.80;;;;;;;25.18;35.13;94204.81;5115421;28;20477;-81
2021/05/12 07:58:27;;;;;;;6.63;3.00;;;;;;;25.21;35.39;94199.78;5115264;28;20492;-82
2021/05/12 08:00:53;;;;;;;3.10;2.80;;;;;;;24.89;35.44;94198.50;5114985;28;20457;-82
2021/05/12 08:03:19;;;;;;;2.87;2.67;;;;;;;24.77;36.17;94189.63;5115528;28;20436;-82
2021/05/12 08:05:47;;;;;;;4.00;3.70;;;;;;;24.76;36.01;94188.81;5115221;28;20446;-82
2021/05/12 08:08:16;;;;;;;2.67;2.47;;;;;;;24.92;35.56;94190.81;5115655;28;20507;-82
2021/05/12 08:10:42;;;;;;;3.20;2.90;;;;;;;24.98;34.57;94184.53;5115253;28;20480;-79
2021/05/12 08:13:10;;;;;;;3.93;2.80;;;;;;;25.01;35.48;94191.28;5115392;28;20489;-82
2021/05/12 08:15:36;;;;;;;6.03;3.33;;;;;;;24.96;35.74;94193.84;5079258;28;20852;-84
2021/05/12 08:18:02;;;;;;;3.40;2.70;;;;;;;25.03;36.67;94189.19;5114369;28;20447;-83
2021/05/12 08:20:31;;;;;;;2.70;2.50;;;;;;;25.19;36.71;94188.44;5113271;28;20445;-82
2021/05/12 08:22:57;;;;;;;5.10;2.93;;;;;;;25.16;35.66;94186.25;5080468;28;20518;-82
2021/05/12 08:25:23;;;;;;;11.17;2.60;;;;;;;25.29;35.98;94185.97;5079231;28;20436;-82
2021/05/12 08:27:53;;;;;;;9.33;3.60;;;;;;;25.45;35.90;94180.91;5100732;28;20491;-82
2021/05/12 08:30:22;;;;;;;2.83;2.63;;;;;;;25.54;35.75;94179.47;5095590;28;20449;-82
2021/05/12 08:32:50;;;;;;;4.40;2.80;;;;;;;25.60;34.52;94173.13;5100433;28;20446;-82
2021/05/12 08:35:16;;;;;;;3.50;3.20;;;;;;;25.66;35.53;94164.09;5115749;28;20540;-82
2021/05/12 08:37:42;;;;;;;5.43;2.40;;;;;;;25.51;34.96;94161.97;5115569;28;21021;-83
2021/05/12 08:40:10;;;;;;;10.30;2.90;;;;;;;25.59;34.90;94150.81;5114756;28;20442;-83
2021/05/12 08:42:37;;;;;;;2.73;2.53;;;;;;;25.70;34.88;94151.84;5080044;28;20524;-82
2021/05/12 08:45:05;;;;;;;3.13;2.83;;;;;;;25.85;35.27;94156.69;5097187;28;20819;-82
2021/05/12 08:47:35;;;;;;;9.10;2.70;;;;;;;25.74;34.31;94146.81;5095158;28;20487;-83
2021/05/12 08:50:02;;;;;;;2.80;2.60;;;;;;;25.63;33.76;94143.09;5094813;28;20953;-83
2021/05/12 08:52:29;;;;;;;5.93;2.70;;;;;;;25.41;34.82;94150.19;5104879;28;20519;-83
2021/05/12 08:54:56;;;;;;;9.03;2.90;;;;;;;25.33;35.56;94148.69;5079369;28;20470;-81
2021/05/12 08:57:22;;;;;;;7.37;3.10;;;;;;;25.50;34.55;94148.75;5095068;28;20446;-82
2021/05/12 08:59:52;;;;;;;3.00;2.70;;;;;;;25.40;34.62;94144.00;5095294;28;20459;-82
2021/05/12 09:02:18;;;;;;;3.10;2.80;;;;;;;25.31;33.87;94142.75;5096220;28;20446;-83
2021/05/12 09:04:46;;;;;;;5.40;2.63;;;;;;;25.35;34.68;94143.09;5102385;28;20501;-83
2021/05/12 09:07:12;;;;;;;4.17;2.77;;;;;;;25.53;34.74;94132.97;5104577;28;20470;-82
2021/05/12 09:09:38;;;;;;;3.10;2.77;;;;;;;25.74;35.30;94136.88;5103528;28;20447;-81
2021/05/12 09:12:05;;;;;;;2.77;2.57;;;;;;;25.50;34.94;94130.78;5102315;28;20427;-82
2021/05/12 09:14:34;;;;;;;4.17;2.80;;;;;;;25.46;35.25;94123.44;5059130;28;20439;-81
2021/05/12 09:17:01;;;;;;;3.77;2.90;;;;;;;25.48;35.43;94124.00;5104270;28;20474;-83
2021/05/12 09:19:28;;;;;;;8.20;3.13;;;;;;;25.45;35.11;94121.81;5107625;28;20443;-82
2021/05/12 09:21:57;;;;;;;3.53;2.60;;;;;;;25.36;36.73;94123.22;5105723;28;20447;-83
2021/05/12 09:24:28;;;;;;;4.50;4.10;;;;;;;25.51;36.38;94120.84;5107798;28;20447;-83
2021/05/12 09:26:56;;;;;;;4.60;3.03;;;;;;;25.60;36.30;94108.63;5108742;28;20483;-84
2021/05/12 09:29:25;;;;;;;8.40;3.07;;;;;;;25.73;35.70;94116.41;5106901;28;20507;-83
2021/05/12 09:31:52;;;;;;;3.10;2.80;;;;;;;25.64;35.40;94115.16;5102826;28;20949;-81
2021/05/12 09:34:19;;;;;;;5.20;3.03;;;;;;;25.71;37.90;94115.03;5110471;28;20450;-82
2021/05/12 09:36:45;;;;;;;4.63;3.37;;;;;;;25.73;36.92;94107.53;5109459;28;20477;-82
2021/05/12 09:39:15;;;;;;;7.10;3.50;;;;;;;25.81;37.59;94115.22;5110751;28;20443;-83
2021/05/12 09:41:43;;;;;;;6.87;2.80;;;;;;;25.47;36.49;94115.13;5109669;28;20442;-83
2021/05/12 09:44:10;;;;;;;5.10;3.10;;;;;;;24.92;37.19;94109.47;5109064;28;20440;-82
2021/05/12 09:46:37;;;;;;;43.47;14.37;;;;;;;24.89;42.76;94107.25;5109063;28;20582;-85
2021/05/12 09:49:17;;;;;;;27.20;8.53;;;;;;;24.90;41.96;94104.34;5107983;28;20454;-84
2021/05/12 09:51:46;;;;;;;6.85;3.03;;;;;;;25.03;39.94;94103.25;5100721;28;20828;-86
2021/05/12 09:54:18;;;;;;;11.45;5.60;;;;;;;25.30;41.05;94098.16;5095034;28;20455;-84
2021/05/12 09:56:47;;;;;;;8.40;3.80;;;;;;;25.56;38.75;94102.13;5094982;28;20441;-90
2021/05/12 09:59:16;;;;;;;3.43;3.00;;;;;;;25.60;37.69;94111.31;5060276;28;20569;-89
2021/05/12 10:01:47;;;;;;;5.30;3.10;;;;;;;25.54;38.75;94109.59;5095768;28;20474;-88
2021/05/12 10:04:30;;;;;;;9.77;4.23;;;;;;;25.50;37.58;94097.72;5094713;28;20763;-88
2021/05/12 10:06:58;;;;;;;6.23;4.00;;;;;;;25.43;38.06;94094.34;5096148;28;20555;-86
2021/05/12 10:09:26;;;;;;;11.80;4.23;;;;;;;25.38;37.20;94091.56;5096274;28;20441;-88
2021/05/12 10:12:10;;;;;;;11.53;5.10;;;;;;;25.38;42.49;94092.38;5095585;28;20458;-88
2021/05/12 10:14:37;;;;;;;12.63;5.87;;;;;;;25.44;41.01;94094.09;5093620;28;20449;-87
2021/05/12 10:17:06;;;;;;;4.57;3.10;;;;;;;25.46;38.25;94081.28;5094495;28;20981;-88
2021/05/12 10:19:32;;;;;;;10.37;4.60;;;;;;;25.43;39.25;94092.47;5094736;28;20442;-88
2021/05/12 10:22:01;;;;;;;5.73;3.20;;;;;;;25.18;37.24;94086.66;5095888;28;20451;-88
2021/05/12 10:24:29;;;;;;;4.73;2.80;;;;;;;24.97;37.35;94082.72;5098143;28;20450;-89
2021/05/12 10:26:57;;;;;;;2.93;2.73;;;;;;;24.64;38.26;94084.19;5098939;28;20478;-90
2021/05/12 10:29:24;;;;;;;3.00;2.70;;;;;;;24.58;40.53;94077.09;5099052;28;20445;-88
2021/05/12 10:31:51;;;;;;;3.90;3.20;;;;;;;24.48;39.24;94073.38;5099014;28;20455;-88
2021/05/12 10:34:19;;;;;;;5.83;3.60;;;;;;;24.42;39.42;94072.44;5098155;28;20452;-87
2021/05/12 10:36:46;;;;;;;8.60;3.80;;;;;;;24.52;41.64;94072.66;5098547;28;20451;-86
2021/05/12 10:39:13;;;;;;;4.97;3.30;;;;;;;24.62;41.72;94074.75;5061541;28;20436;-86
2021/05/12 10:41:45;;;;;;;8.93;3.47;;;;;;;24.37;40.18;94072.34;5096764;28;20450;-82
2021/05/12 10:44:15;;;;;;;4.23;3.50;;;;;;;24.42;38.61;94064.41;5111864;28;20460;-85
2021/05/12 10:47:06;;;;;;;8.60;3.93;;;;;;;24.52;40.37;94059.25;5117623;28;20508;-85
2021/05/12 10:49:32;;;;;;;8.27;3.27;;;;;;;24.61;41.82;94052.47;5099680;28;20445;-84
2021/05/12 10:52:06;;;;;;;4.63;2.70;;;;;;;24.65;40.36;94063.56;5060854;28;20491;-85
2021/05/12 10:54:46;;;;;;;4.63;2.90;;;;;;;24.67;39.23;94051.53;5096699;28;20469;-85
2021/05/12 10:57:44;;;;;;;4.17;3.33;;;;;;;24.73;39.56;94048.94;5117043;28;20455;-85
2021/05/12 11:00:11;;;;;;;6.20;3.27;;;;;;;24.72;39.65;94045.44;5117492;28;20451;-84
2021/05/12 11:03:01;;;;;;;6.93;3.00;;;;;;;24.61;40.22;94048.97;5064317;28;20449;-84
2021/05/12 11:05:42;;;;;;;5.90;3.40;;;;;;;24.54;40.20;94046.41;5116027;28;20953;-85
2021/05/12 11:08:14;;;;;;;4.60;3.50;;;;;;;24.39;39.59;94041.56;5117722;28;20487;-86
2021/05/12 11:10:50;;;;;;;9.30;3.97;;;;;;;24.32;39.57;94034.69;5107564;28;20450;-85
2021/05/12 11:13:22;;;;;;;8.40;3.40;;;;;;;24.32;40.07;94032.00;5116964;28;20448;-86
2021/05/12 11:15:53;;;;;;;3.13;2.83;;;;;;;24.33;40.25;94028.28;5110539;28;20456;-85
2021/05/12 11:18:49;;;;;;;3.30;2.93;;;;;;;24.37;40.96;94024.88;5115599;28;20849;-85
2021/05/12 11:21:34;;;;;;;9.53;3.20;;;;;;;24.43;40.80;94023.13;5115171;28;20435;-85
2021/05/12 11:24:19;;;;;;;6.47;3.40;;;;;;;24.52;40.84;94021.69;5116460;28;20448;-85
2021/05/12 11:27:01;;;;;;;3.23;2.93;;;;;;;24.57;41.33;94008.38;5116909;28;20493;-85
2021/05/12 11:32:13;;;;;;;4.80;2.97;;;;;;;24.50;39.68;94006.88;5116551;28;20452;-85
2021/05/12 11:34:41;;;;;;;4.90;2.73;;;;;;;24.56;39.92;94005.94;5101534;28;20445;-85
2021/05/12 11:37:10;;;;;;;2.87;2.67;;;;;;;24.64;41.39;93997.53;5097118;28;20471;-85
2021/05/12 11:39:36;;;;;;;7.37;3.70;;;;;;;24.68;41.26;93986.09;5103639;28;20455;-84